createdAt,value
2023-03-23T00:00:28.645Z,72.4
2023-03-23T00:15:38.617Z,72.8
2023-03-23T00:30:48.522Z,73.4
2023-03-23T00:45:58.440Z,73.7
2023-03-23T01:01:07.956Z,73.9
2023-03-23T01:16:17.777Z,74.2
2023-03-23T01:31:27.678Z,74.6
2023-03-23T01:46:37.339Z,74.7
2023-03-23T02:01:47.097Z,75
2023-03-23T02:16:56.307Z,75.1
2023-03-23T02:32:05.966Z,75.2
2023-03-23T02:47:15.795Z,75.3
2023-03-23T03:02:26.183Z,75.7
2023-03-23T03:17:36.165Z,75.5
2023-03-23T03:32:46.054Z,76
2023-03-23T03:47:56.730Z,75.7
2023-03-23T04:03:06.944Z,75.8
2023-03-23T04:18:17.623Z,76.5
2023-03-23T04:34:01.247Z,75.8
2023-03-23T04:49:11.773Z,75.8
2023-03-23T05:04:21.536Z,75.8
2023-03-23T05:19:31.539Z,75.7
2023-03-23T05:34:41.290Z,75.7
2023-03-23T05:49:51.110Z,75.6
2023-03-23T06:05:01.322Z,75.5
2023-03-23T06:20:11.002Z,75.3
2023-03-23T06:35:20.633Z,75.2
2023-03-23T06:50:30.328Z,75.1
2023-03-23T07:05:41.287Z,75.2
2023-03-23T07:20:51.715Z,74.7
2023-03-23T07:36:01.489Z,74.6
2023-03-23T07:51:11.118Z,74.5
2023-03-23T08:06:21.197Z,74.1
2023-03-23T08:21:31.088Z,73.8
2023-03-23T08:36:40.287Z,73.7
2023-03-23T08:51:49.664Z,73.6
2023-03-23T09:06:59.599Z,73.8
2023-03-23T09:22:09.568Z,74.7
2023-03-23T09:37:19.749Z,73.6
2023-03-23T09:52:30.721Z,73.6
2023-03-23T10:07:40.376Z,73.8
2023-03-23T10:22:49.926Z,73.6
2023-03-23T10:37:59.640Z,73.3
2023-03-23T10:53:09.589Z,72.7
2023-03-23T11:08:19.623Z,71.9
2023-03-23T11:23:30.061Z,72.2
2023-03-23T11:38:39.551Z,72.5
2023-03-23T11:53:48.970Z,73.4
2023-03-23T12:08:58.015Z,74.5
2023-03-23T12:24:08.019Z,76.1
2023-03-23T12:39:17.231Z,76
2023-03-23T12:56:36.489Z,75.6
2023-03-23T13:11:47.326Z,76.2
2023-03-23T13:26:56.979Z,76.1
2023-03-23T13:42:06.854Z,75.9
2023-03-23T13:57:16.551Z,75.4
2023-03-23T14:12:26.179Z,75.1
2023-03-23T14:27:36.372Z,73.2
2023-03-23T14:42:46.557Z,72.9
2023-03-23T14:57:56.172Z,73.5
2023-03-23T15:13:05.924Z,74.3
2023-03-23T15:28:16.261Z,73.9
2023-03-23T15:43:25.841Z,74.2
2023-03-23T15:58:39.852Z,69
2023-03-23T16:13:52.087Z,58.2
2023-03-23T16:29:54.775Z,68.7
2023-03-23T16:45:11.791Z,63.7
2023-03-23T17:00:21.440Z,70
2023-03-23T17:15:30.816Z,74.1
2023-03-23T17:30:40.242Z,75
2023-03-23T17:45:50.458Z,75.1
2023-03-23T18:01:00.033Z,75.1
2023-03-23T18:16:10.510Z,75.2
2023-03-23T18:31:19.979Z,75.4
2023-03-23T18:46:30.306Z,75.3
2023-03-23T19:01:40.352Z,75.3
2023-03-23T19:16:50.264Z,75.5
2023-03-23T19:32:00.283Z,75
2023-03-23T19:47:10.948Z,75.6
2023-03-23T20:02:20.905Z,75.5
2023-03-23T20:17:31.716Z,75.7
2023-03-23T20:32:41.773Z,75.9
2023-03-23T20:47:51.153Z,75.8
2023-03-23T21:03:01.231Z,76.2
2023-03-23T21:18:11.474Z,76.3
2023-03-23T21:33:21.174Z,76.5
2023-03-23T21:48:32.302Z,76.5
2023-03-23T22:03:41.832Z,76.4
2023-03-23T22:18:51.647Z,76.3
2023-03-23T22:34:01.315Z,76.2
2023-03-23T22:49:11.057Z,76.2
2023-03-23T23:04:20.824Z,77.3
2023-03-23T23:19:32.007Z,75.6
2023-03-23T23:34:42.182Z,75.3
2023-03-23T23:49:52.167Z,75.3
